Current Weather

Vermilion Rgnl

Danville, Illinois (KDNV)

Report from: Friday, April 19, 2024 2:55 AM CDT
Current time: Friday, April 19, 2024 3:18 AM CDT

Nearby weather – Weather history – Daily summaries
Weather forecast

Temperature9.3°C (48.7°F)
Wind chill6.9°C (44.4°F)
Dew point7.6°C (45.7°F)
Winds 9 kts (4.6 m/s, 10.4 mph) North-Northwest (330°)
Visibility10 mi. (16.1 km)
Clouds Ceiling: Overcast 3,800 ft. (1,158 m)
Altimeter30.00 in.Hg (1016 mB)
Relative humidity89 %
Density altitude-623 ft. (-190 m)
Remarks Fully automated report
Automated weather observing station with precipitation discriminator
Flight conditions Visual Meteorological Conditions
Raw dataKDNV 190755Z AUTO 33009KT 10SM OVC038 09/08 A3000 RMK AO2 T00930076
An error has occurred. This application may no longer respond until reloaded. Reload 🗙